sensor_id;sensor_type;location;lat;lon;timestamp;pressure;altitude;pressure_sealevel;temperature;humidity
42415;BME280;28058;46.344;17.786;2022-07-29T00:02:24;118336.50;;;-144.97;97.90
42415;BME280;28058;46.344;17.786;2022-07-29T00:04:51;118336.50;;;-144.97;98.17
42415;BME280;28058;46.344;17.786;2022-07-29T00:07:18;118336.50;;;-144.97;99.03
42415;BME280;28058;46.344;17.786;2022-07-29T00:09:44;118336.50;;;-144.97;98.86
42415;BME280;28058;46.344;17.786;2022-07-29T00:12:21;118336.50;;;-144.97;99.83
42415;BME280;28058;46.344;17.786;2022-07-29T00:14:55;118336.50;;;-144.97;98.77
42415;BME280;28058;46.344;17.786;2022-07-29T00:17:22;118336.50;;;-144.97;100.00
42415;BME280;28058;46.344;17.786;2022-07-29T00:19:49;118336.50;;;-144.97;99.40
42415;BME280;28058;46.344;17.786;2022-07-29T00:22:16;118336.50;;;-144.97;99.98
42415;BME280;28058;46.344;17.786;2022-07-29T00:24:42;118336.50;;;-144.97;100.00
42415;BME280;28058;46.344;17.786;2022-07-29T00:27:09;118336.50;;;-144.97;100.00
42415;BME280;28058;46.344;17.786;2022-07-29T00:29:36;118336.50;;;-144.97;100.00
42415;BME280;28058;46.344;17.786;2022-07-29T00:32:02;118336.50;;;-144.97;100.00
42415;BME280;28058;46.344;17.786;2022-07-29T00:34:29;118336.50;;;-144.97;100.00
42415;BME280;28058;46.344;17.786;2022-07-29T00:37:15;118336.50;;;-144.97;100.00
42415;BME280;28058;46.344;17.786;2022-07-29T00:39:42;118336.50;;;-144.97;100.00
42415;BME280;28058;46.344;17.786;2022-07-29T00:42:08;118336.50;;;-144.97;100.00
42415;BME280;28058;46.344;17.786;2022-07-29T00:44:39;118336.50;;;-144.97;100.00
42415;BME280;28058;46.344;17.786;2022-07-29T00:47:07;118336.50;;;-144.97;100.00
42415;BME280;28058;46.344;17.786;2022-07-29T00:49:34;118336.50;;;-144.97;100.00
42415;BME280;28058;46.344;17.786;2022-07-29T00:52:06;118336.50;;;-144.97;100.00
42415;BME280;28058;46.344;17.786;2022-07-29T00:54:33;118336.50;;;-144.97;100.00
42415;BME280;28058;46.344;17.786;2022-07-29T00:57:04;118336.50;;;-144.97;100.00
42415;BME280;28058;46.344;17.786;2022-07-29T00:59:32;118336.50;;;-144.97;100.00
42415;BME280;28058;46.344;17.786;2022-07-29T01:02:01;118336.50;;;-144.97;100.00
42415;BME280;28058;46.344;17.786;2022-07-29T01:04:27;118336.50;;;-144.97;100.00
42415;BME280;28058;46.344;17.786;2022-07-29T01:06:56;118336.50;;;-144.97;100.00
42415;BME280;28058;46.344;17.786;2022-07-29T01:09:24;118336.50;;;-144.97;100.00
42415;BME280;28058;46.344;17.786;2022-07-29T01:12:32;118336.50;;;-144.97;100.00
42415;BME280;28058;46.344;17.786;2022-07-29T01:15:00;118336.50;;;-144.97;100.00
42415;BME280;28058;46.344;17.786;2022-07-29T01:31:07;118336.50;;;-144.97;100.00
42415;BME280;28058;46.344;17.786;2022-07-29T01:33:49;118336.50;;;-144.97;100.00
42415;BME280;28058;46.344;17.786;2022-07-29T01:36:25;118336.50;;;-144.97;100.00
42415;BME280;28058;46.344;17.786;2022-07-29T01:39:16;118336.50;;;-144.97;100.00
42415;BME280;28058;46.344;17.786;2022-07-29T01:41:43;118336.50;;;-144.97;100.00
42415;BME280;28058;46.344;17.786;2022-07-29T01:44:16;118336.50;;;-144.97;100.00
42415;BME280;28058;46.344;17.786;2022-07-29T01:46:55;118336.50;;;-144.97;100.00
42415;BME280;28058;46.344;17.786;2022-07-29T01:49:25;118336.50;;;-144.97;100.00
42415;BME280;28058;46.344;17.786;2022-07-29T01:52:01;118336.50;;;-144.97;100.00
42415;BME280;28058;46.344;17.786;2022-07-29T01:54:43;118336.50;;;-144.97;100.00
42415;BME280;28058;46.344;17.786;2022-07-29T01:57:13;118336.50;;;-144.97;100.00
42415;BME280;28058;46.344;17.786;2022-07-29T01:59:40;118336.50;;;-144.97;100.00
42415;BME280;28058;46.344;17.786;2022-07-29T02:02:09;118336.50;;;-144.97;100.00
42415;BME280;28058;46.344;17.786;2022-07-29T02:04:37;118336.50;;;-144.97;100.00
42415;BME280;28058;46.344;17.786;2022-07-29T02:07:07;118336.50;;;-144.97;100.00
42415;BME280;28058;46.344;17.786;2022-07-29T02:09:37;118336.50;;;-144.97;100.00
42415;BME280;28058;46.344;17.786;2022-07-29T02:12:05;118336.50;;;-144.97;100.00
42415;BME280;28058;46.344;17.786;2022-07-29T02:14:34;118336.50;;;-144.97;100.00
42415;BME280;28058;46.344;17.786;2022-07-29T02:17:02;118336.50;;;-144.97;100.00
42415;BME280;28058;46.344;17.786;2022-07-29T02:19:30;118336.50;;;-144.97;100.00
42415;BME280;28058;46.344;17.786;2022-07-29T02:21:58;118336.50;;;-144.97;100.00
42415;BME280;28058;46.344;17.786;2022-07-29T02:24:25;118336.50;;;-144.97;100.00
42415;BME280;28058;46.344;17.786;2022-07-29T02:26:53;118336.50;;;-144.97;100.00
42415;BME280;28058;46.344;17.786;2022-07-29T02:29:22;118336.50;;;-144.97;100.00
42415;BME280;28058;46.344;17.786;2022-07-29T02:31:50;118336.50;;;-144.97;100.00
42415;BME280;28058;46.344;17.786;2022-07-29T02:34:18;118336.50;;;-144.97;100.00
42415;BME280;28058;46.344;17.786;2022-07-29T02:36:46;118336.50;;;-144.97;100.00
42415;BME280;28058;46.344;17.786;2022-07-29T02:39:15;118336.50;;;-144.97;100.00
42415;BME280;28058;46.344;17.786;2022-07-29T02:41:43;118336.50;;;-144.97;100.00
42415;BME280;28058;46.344;17.786;2022-07-29T02:44:11;118336.50;;;-144.97;100.00
42415;BME280;28058;46.344;17.786;2022-07-29T02:46:46;118336.50;;;-144.97;100.00
42415;BME280;28058;46.344;17.786;2022-07-29T02:51:57;118336.50;;;-144.97;100.00
42415;BME280;28058;46.344;17.786;2022-07-29T03:00:21;118336.50;;;-144.97;100.00
42415;BME280;28058;46.344;17.786;2022-07-29T03:02:49;118336.50;;;-144.97;100.00
42415;BME280;28058;46.344;17.786;2022-07-29T03:05:17;118336.50;;;-144.97;100.00
42415;BME280;28058;46.344;17.786;2022-07-29T03:07:49;118336.50;;;-144.97;100.00
42415;BME280;28058;46.344;17.786;2022-07-29T03:10:17;118336.50;;;-144.97;100.00
42415;BME280;28058;46.344;17.786;2022-07-29T03:12:44;118336.50;;;-144.97;100.00
42415;BME280;28058;46.344;17.786;2022-07-29T03:15:11;118336.50;;;-144.97;100.00
42415;BME280;28058;46.344;17.786;2022-07-29T03:17:38;118336.50;;;-144.97;100.00
42415;BME280;28058;46.344;17.786;2022-07-29T03:20:06;118336.50;;;-144.97;100.00
42415;BME280;28058;46.344;17.786;2022-07-29T03:22:33;118336.50;;;-144.97;100.00
42415;BME280;28058;46.344;17.786;2022-07-29T03:25:08;118336.50;;;-144.97;100.00
42415;BME280;28058;46.344;17.786;2022-07-29T03:27:35;118336.50;;;-144.97;100.00
42415;BME280;28058;46.344;17.786;2022-07-29T03:30:02;118336.50;;;-144.97;100.00
42415;BME280;28058;46.344;17.786;2022-07-29T03:32:29;118336.50;;;-144.97;100.00
42415;BME280;28058;46.344;17.786;2022-07-29T03:34:56;118336.50;;;-144.97;100.00
42415;BME280;28058;46.344;17.786;2022-07-29T03:37:22;118336.50;;;-144.97;100.00
42415;BME280;28058;46.344;17.786;2022-07-29T03:39:49;118336.50;;;-144.97;100.00
42415;BME280;28058;46.344;17.786;2022-07-29T03:42:18;118336.50;;;-144.97;100.00
42415;BME280;28058;46.344;17.786;2022-07-29T03:44:47;118336.50;;;-144.97;100.00
42415;BME280;28058;46.344;17.786;2022-07-29T03:47:14;118336.50;;;-144.97;100.00
42415;BME280;28058;46.344;17.786;2022-07-29T03:49:41;118336.50;;;-144.97;100.00
42415;BME280;28058;46.344;17.786;2022-07-29T03:52:08;118336.50;;;-144.97;100.00
42415;BME280;28058;46.344;17.786;2022-07-29T03:54:35;118336.50;;;-144.97;100.00
42415;BME280;28058;46.344;17.786;2022-07-29T03:57:02;118336.50;;;-144.97;100.00
42415;BME280;28058;46.344;17.786;2022-07-29T03:59:30;118336.50;;;-144.97;100.00
42415;BME280;28058;46.344;17.786;2022-07-29T04:01:58;118336.50;;;-144.97;100.00
42415;BME280;28058;46.344;17.786;2022-07-29T04:04:26;118336.50;;;-144.97;100.00
42415;BME280;28058;46.344;17.786;2022-07-29T04:06:54;118336.50;;;-144.97;100.00
42415;BME280;28058;46.344;17.786;2022-07-29T04:09:20;118336.50;;;-144.97;100.00
42415;BME280;28058;46.344;17.786;2022-07-29T04:11:47;118336.50;;;-144.97;100.00
42415;BME280;28058;46.344;17.786;2022-07-29T04:14:29;118336.50;;;-144.97;100.00
42415;BME280;28058;46.344;17.786;2022-07-29T04:16:55;118336.50;;;-144.97;100.00
42415;BME280;28058;46.344;17.786;2022-07-29T04:19:22;118336.50;;;-144.97;100.00
42415;BME280;28058;46.344;17.786;2022-07-29T04:21:49;118336.50;;;-144.97;100.00
42415;BME280;28058;46.344;17.786;2022-07-29T04:24:15;118336.50;;;-144.97;100.00
42415;BME280;28058;46.344;17.786;2022-07-29T04:26:44;118336.50;;;-144.97;100.00
42415;BME280;28058;46.344;17.786;2022-07-29T04:29:11;118336.50;;;-144.97;100.00
42415;BME280;28058;46.344;17.786;2022-07-29T04:31:38;118336.50;;;-144.97;100.00
42415;BME280;28058;46.344;17.786;2022-07-29T04:34:05;118336.50;;;-144.97;95.73
42415;BME280;28058;46.344;17.786;2022-07-29T04:36:31;118336.50;;;-144.97;93.41
42415;BME280;28058;46.344;17.786;2022-07-29T04:38:58;118336.50;;;-144.97;87.17
42415;BME280;28058;46.344;17.786;2022-07-29T04:41:25;118336.50;;;-144.97;83.02
42415;BME280;28058;46.344;17.786;2022-07-29T04:43:58;118336.50;;;-144.97;77.12
42415;BME280;28058;46.344;17.786;2022-07-29T04:46:27;118336.50;;;-144.97;71.59
42415;BME280;28058;46.344;17.786;2022-07-29T04:48:54;118336.50;;;-144.97;64.65
42415;BME280;28058;46.344;17.786;2022-07-29T04:51:21;118336.50;;;-144.97;63.09
42415;BME280;28058;46.344;17.786;2022-07-29T04:53:48;118336.50;;;-144.97;58.32
42415;BME280;28058;46.344;17.786;2022-07-29T04:56:15;118336.50;;;-144.97;54.10
42415;BME280;28058;46.344;17.786;2022-07-29T04:58:42;118336.50;;;-144.97;53.70
42415;BME280;28058;46.344;17.786;2022-07-29T05:01:08;118336.50;;;-144.97;52.01
42415;BME280;28058;46.344;17.786;2022-07-29T05:03:36;118336.50;;;-144.97;50.30
42415;BME280;28058;46.344;17.786;2022-07-29T05:06:03;118336.50;;;-144.97;48.86
42415;BME280;28058;46.344;17.786;2022-07-29T05:08:29;118336.50;;;-144.97;50.11
42415;BME280;28058;46.344;17.786;2022-07-29T05:10:56;118336.50;;;-144.97;51.14
42415;BME280;28058;46.344;17.786;2022-07-29T05:13:37;118336.50;;;-144.97;58.58
42415;BME280;28058;46.344;17.786;2022-07-29T05:16:11;118336.50;;;-144.97;63.61
42415;BME280;28058;46.344;17.786;2022-07-29T05:18:40;118336.50;;;-144.97;61.88
42415;BME280;28058;46.344;17.786;2022-07-29T05:21:06;118336.50;;;-144.97;60.47
42415;BME280;28058;46.344;17.786;2022-07-29T05:23:34;118336.50;;;-144.97;59.61
42415;BME280;28058;46.344;17.786;2022-07-29T05:26:00;118336.50;;;-144.97;61.89
42415;BME280;28058;46.344;17.786;2022-07-29T05:28:27;118336.50;;;-144.97;55.72
42415;BME280;28058;46.344;17.786;2022-07-29T05:30:54;118336.50;;;-144.97;51.19
42415;BME280;28058;46.344;17.786;2022-07-29T05:33:21;118336.50;;;-144.97;51.74
42415;BME280;28058;46.344;17.786;2022-07-29T05:36:02;118336.50;;;-144.97;49.14
42415;BME280;28058;46.344;17.786;2022-07-29T05:38:29;118336.50;;;-144.97;50.49
42415;BME280;28058;46.344;17.786;2022-07-29T05:40:58;118336.50;;;-144.97;55.56
42415;BME280;28058;46.344;17.786;2022-07-29T05:43:29;118336.50;;;-144.97;58.65
42415;BME280;28058;46.344;17.786;2022-07-29T05:45:56;118336.50;;;-144.97;66.75
42415;BME280;28058;46.344;17.786;2022-07-29T05:48:23;118336.50;;;-144.97;70.02
42415;BME280;28058;46.344;17.786;2022-07-29T05:50:50;118336.50;;;-144.97;70.59
42415;BME280;28058;46.344;17.786;2022-07-29T05:53:16;118336.50;;;-144.97;70.94
42415;BME280;28058;46.344;17.786;2022-07-29T05:55:46;118336.50;;;-144.97;71.18
42415;BME280;28058;46.344;17.786;2022-07-29T05:58:13;118336.50;;;-144.97;71.58
42415;BME280;28058;46.344;17.786;2022-07-29T06:00:39;118336.50;;;-144.97;71.36
42415;BME280;28058;46.344;17.786;2022-07-29T06:03:06;118336.50;;;-144.97;65.25
42415;BME280;28058;46.344;17.786;2022-07-29T06:05:33;118336.50;;;-144.97;50.03
42415;BME280;28058;46.344;17.786;2022-07-29T06:07:59;118336.50;;;-144.97;47.28
42415;BME280;28058;46.344;17.786;2022-07-29T06:10:26;118336.50;;;-144.97;44.21
42415;BME280;28058;46.344;17.786;2022-07-29T06:12:53;118336.50;;;-144.97;41.23
42415;BME280;28058;46.344;17.786;2022-07-29T06:15:20;118336.50;;;-144.97;40.33
42415;BME280;28058;46.344;17.786;2022-07-29T06:17:46;118336.50;;;-144.97;39.56
42415;BME280;28058;46.344;17.786;2022-07-29T06:20:30;118336.50;;;-144.97;39.57
42415;BME280;28058;46.344;17.786;2022-07-29T06:22:58;118336.50;;;-144.97;37.34
42415;BME280;28058;46.344;17.786;2022-07-29T06:25:25;118336.50;;;-144.97;38.01
42415;BME280;28058;46.344;17.786;2022-07-29T06:27:52;118336.50;;;-144.97;37.65
42415;BME280;28058;46.344;17.786;2022-07-29T06:30:19;118336.50;;;-144.97;37.45
42415;BME280;28058;46.344;17.786;2022-07-29T06:32:46;118336.50;;;-144.97;36.51
42415;BME280;28058;46.344;17.786;2022-07-29T06:35:13;118336.50;;;-144.97;34.45
42415;BME280;28058;46.344;17.786;2022-07-29T06:38:00;118336.50;;;-144.97;34.45
42415;BME280;28058;46.344;17.786;2022-07-29T06:40:27;118336.50;;;-144.97;33.74
42415;BME280;28058;46.344;17.786;2022-07-29T06:43:12;118336.50;;;-144.97;33.90
42415;BME280;28058;46.344;17.786;2022-07-29T06:45:39;118336.50;;;-144.97;33.57
42415;BME280;28058;46.344;17.786;2022-07-29T06:48:08;118336.50;;;-144.97;34.19
42415;BME280;28058;46.344;17.786;2022-07-29T06:50:35;118336.50;;;-144.97;32.84
42415;BME280;28058;46.344;17.786;2022-07-29T06:53:01;118336.50;;;-144.97;32.05
42415;BME280;28058;46.344;17.786;2022-07-29T06:55:28;118336.50;;;-144.97;32.55
42415;BME280;28058;46.344;17.786;2022-07-29T06:57:55;118336.50;;;-144.97;33.46
42415;BME280;28058;46.344;17.786;2022-07-29T07:00:21;118336.50;;;-144.97;34.78
42415;BME280;28058;46.344;17.786;2022-07-29T07:02:48;118336.50;;;-144.97;34.52
42415;BME280;28058;46.344;17.786;2022-07-29T07:05:15;118336.50;;;-144.97;34.62
42415;BME280;28058;46.344;17.786;2022-07-29T07:07:41;118336.50;;;-144.97;32.93
42415;BME280;28058;46.344;17.786;2022-07-29T07:10:08;118336.50;;;-144.97;32.05
42415;BME280;28058;46.344;17.786;2022-07-29T07:12:35;118336.50;;;-144.97;32.02
42415;BME280;28058;46.344;17.786;2022-07-29T07:15:02;118336.50;;;-144.97;31.77
42415;BME280;28058;46.344;17.786;2022-07-29T07:17:29;118336.50;;;-144.97;32.32
42415;BME280;28058;46.344;17.786;2022-07-29T07:19:56;118336.50;;;-144.97;31.37
42415;BME280;28058;46.344;17.786;2022-07-29T07:22:23;118336.50;;;-144.97;30.98
42415;BME280;28058;46.344;17.786;2022-07-29T07:24:49;118336.50;;;-144.97;30.95
42415;BME280;28058;46.344;17.786;2022-07-29T07:27:16;118336.50;;;-144.97;30.96
42415;BME280;28058;46.344;17.786;2022-07-29T07:29:43;118336.50;;;-144.97;30.26
42415;BME280;28058;46.344;17.786;2022-07-29T07:32:10;118336.50;;;-144.97;30.41
42415;BME280;28058;46.344;17.786;2022-07-29T07:34:37;118336.50;;;-144.97;31.61
42415;BME280;28058;46.344;17.786;2022-07-29T07:37:05;118336.50;;;-144.97;30.60
42415;BME280;28058;46.344;17.786;2022-07-29T07:39:32;118336.50;;;-144.97;31.07
42415;BME280;28058;46.344;17.786;2022-07-29T07:41:59;118336.50;;;-144.97;30.74
42415;BME280;28058;46.344;17.786;2022-07-29T07:44:26;118336.50;;;-144.97;31.82
42415;BME280;28058;46.344;17.786;2022-07-29T07:46:52;118336.50;;;-144.97;30.82
42415;BME280;28058;46.344;17.786;2022-07-29T07:49:20;118336.50;;;-144.97;30.00
42415;BME280;28058;46.344;17.786;2022-07-29T07:51:47;118336.50;;;-144.97;30.27
42415;BME280;28058;46.344;17.786;2022-07-29T07:54:16;118336.50;;;-144.97;29.55
42415;BME280;28058;46.344;17.786;2022-07-29T07:56:46;118336.50;;;-144.97;29.31
42415;BME280;28058;46.344;17.786;2022-07-29T07:59:18;118336.50;;;-144.97;29.60
42415;BME280;28058;46.344;17.786;2022-07-29T08:01:45;118336.50;;;-144.97;29.56
42415;BME280;28058;46.344;17.786;2022-07-29T08:04:21;118336.50;;;-144.97;28.77
42415;BME280;28058;46.344;17.786;2022-07-29T08:06:54;118336.50;;;-144.97;29.56
42415;BME280;28058;46.344;17.786;2022-07-29T08:09:23;118336.50;;;-144.97;30.20
42415;BME280;28058;46.344;17.786;2022-07-29T08:11:57;118336.50;;;-144.97;28.38
42415;BME280;28058;46.344;17.786;2022-07-29T08:14:25;118336.50;;;-144.97;28.63
42415;BME280;28058;46.344;17.786;2022-07-29T08:16:52;118336.50;;;-144.97;28.41
42415;BME280;28058;46.344;17.786;2022-07-29T08:19:19;118336.50;;;-144.97;27.79
42415;BME280;28058;46.344;17.786;2022-07-29T08:21:46;118336.50;;;-144.97;28.04
42415;BME280;28058;46.344;17.786;2022-07-29T08:24:13;118336.50;;;-144.97;27.84
42415;BME280;28058;46.344;17.786;2022-07-29T08:26:58;118336.50;;;-144.97;28.54
42415;BME280;28058;46.344;17.786;2022-07-29T08:29:24;118336.50;;;-144.97;27.62
42415;BME280;28058;46.344;17.786;2022-07-29T08:31:51;118336.50;;;-144.97;28.15
42415;BME280;28058;46.344;17.786;2022-07-29T08:34:19;118336.50;;;-144.97;27.61
42415;BME280;28058;46.344;17.786;2022-07-29T08:36:53;118336.50;;;-144.97;27.69
42415;BME280;28058;46.344;17.786;2022-07-29T08:39:19;118336.50;;;-144.97;26.88
42415;BME280;28058;46.344;17.786;2022-07-29T08:41:46;118336.50;;;-144.97;26.92
42415;BME280;28058;46.344;17.786;2022-07-29T08:44:23;118336.50;;;-144.97;26.46
42415;BME280;28058;46.344;17.786;2022-07-29T08:46:56;118336.50;;;-144.97;26.32
42415;BME280;28058;46.344;17.786;2022-07-29T08:49:23;118336.50;;;-144.97;25.69
42415;BME280;28058;46.344;17.786;2022-07-29T08:51:51;118336.50;;;-144.97;26.49
42415;BME280;28058;46.344;17.786;2022-07-29T08:54:21;118336.50;;;-144.97;25.84
42415;BME280;28058;46.344;17.786;2022-07-29T08:56:50;118336.50;;;-144.97;25.38
42415;BME280;28058;46.344;17.786;2022-07-29T08:59:22;118336.50;;;-144.97;26.26
42415;BME280;28058;46.344;17.786;2022-07-29T09:01:51;118336.50;;;-144.97;25.38
42415;BME280;28058;46.344;17.786;2022-07-29T09:04:20;118336.50;;;-144.97;25.13
42415;BME280;28058;46.344;17.786;2022-07-29T09:06:49;118336.50;;;-144.97;25.47
42415;BME280;28058;46.344;17.786;2022-07-29T09:09:17;118336.50;;;-144.97;25.04
42415;BME280;28058;46.344;17.786;2022-07-29T09:11:44;118336.50;;;-144.97;25.41
42415;BME280;28058;46.344;17.786;2022-07-29T09:14:13;118336.50;;;-144.97;25.10
42415;BME280;28058;46.344;17.786;2022-07-29T09:17:09;118336.50;;;-144.97;25.54
42415;BME280;28058;46.344;17.786;2022-07-29T09:19:37;118336.50;;;-144.97;25.30
42415;BME280;28058;46.344;17.786;2022-07-29T09:22:10;118336.50;;;-144.97;25.75
42415;BME280;28058;46.344;17.786;2022-07-29T09:24:41;118336.50;;;-144.97;25.46
42415;BME280;28058;46.344;17.786;2022-07-29T09:27:21;118336.50;;;-144.97;26.26
42415;BME280;28058;46.344;17.786;2022-07-29T09:29:56;118336.50;;;-144.97;25.74
42415;BME280;28058;46.344;17.786;2022-07-29T09:32:23;118336.50;;;-144.97;26.37
42415;BME280;28058;46.344;17.786;2022-07-29T09:34:50;118336.50;;;-144.97;26.98
42415;BME280;28058;46.344;17.786;2022-07-29T09:37:28;118336.50;;;-144.97;26.78
42415;BME280;28058;46.344;17.786;2022-07-29T09:39:55;118336.50;;;-144.97;27.64
42415;BME280;28058;46.344;17.786;2022-07-29T09:42:29;118336.50;;;-144.97;28.05
42415;BME280;28058;46.344;17.786;2022-07-29T09:44:56;118336.50;;;-144.97;27.55
42415;BME280;28058;46.344;17.786;2022-07-29T09:47:23;118336.50;;;-144.97;27.21
42415;BME280;28058;46.344;17.786;2022-07-29T09:50:06;118336.50;;;-144.97;27.56
42415;BME280;28058;46.344;17.786;2022-07-29T09:52:41;118336.50;;;-144.97;27.77
42415;BME280;28058;46.344;17.786;2022-07-29T09:55:10;118336.50;;;-144.97;27.45
42415;BME280;28058;46.344;17.786;2022-07-29T09:57:43;118336.50;;;-144.97;28.54
42415;BME280;28058;46.344;17.786;2022-07-29T10:00:11;118336.50;;;-144.97;27.79
42415;BME280;28058;46.344;17.786;2022-07-29T10:02:39;118336.50;;;-144.97;27.87
42415;BME280;28058;46.344;17.786;2022-07-29T10:05:15;118336.50;;;-144.97;26.98
42415;BME280;28058;46.344;17.786;2022-07-29T10:07:44;118336.50;;;-144.97;27.73
42415;BME280;28058;46.344;17.786;2022-07-29T10:10:21;118336.50;;;-144.97;27.37
42415;BME280;28058;46.344;17.786;2022-07-29T10:12:48;118336.50;;;-144.97;27.42
42415;BME280;28058;46.344;17.786;2022-07-29T10:15:15;118336.50;;;-144.97;26.86
42415;BME280;28058;46.344;17.786;2022-07-29T10:17:42;118336.50;;;-144.97;27.76
42415;BME280;28058;46.344;17.786;2022-07-29T10:20:10;118336.50;;;-144.97;27.93
42415;BME280;28058;46.344;17.786;2022-07-29T10:22:41;118336.50;;;-144.97;28.12
42415;BME280;28058;46.344;17.786;2022-07-29T10:25:19;118336.50;;;-144.97;26.92
42415;BME280;28058;46.344;17.786;2022-07-29T10:27:46;118336.50;;;-144.97;27.42
42415;BME280;28058;46.344;17.786;2022-07-29T10:30:14;118336.50;;;-144.97;27.51
42415;BME280;28058;46.344;17.786;2022-07-29T10:33:06;118336.50;;;-144.97;27.82
42415;BME280;28058;46.344;17.786;2022-07-29T10:35:45;118336.50;;;-144.97;27.17
42415;BME280;28058;46.344;17.786;2022-07-29T10:44:05;118336.50;;;-144.97;26.51
42415;BME280;28058;46.344;17.786;2022-07-29T10:46:36;118336.50;;;-144.97;26.63
42415;BME280;28058;46.344;17.786;2022-07-29T10:54:19;118336.50;;;-144.97;27.31
42415;BME280;28058;46.344;17.786;2022-07-29T10:57:15;118336.50;;;-144.97;27.30
42415;BME280;28058;46.344;17.786;2022-07-29T11:00:25;118336.50;;;-144.97;27.08
42415;BME280;28058;46.344;17.786;2022-07-29T11:05:25;118336.50;;;-144.97;26.91
42415;BME280;28058;46.344;17.786;2022-07-29T11:08:18;118336.50;;;-144.97;26.67
42415;BME280;28058;46.344;17.786;2022-07-29T11:10:52;118336.50;;;-144.97;27.05
42415;BME280;28058;46.344;17.786;2022-07-29T11:16:07;118336.50;;;-144.97;26.94
42415;BME280;28058;46.344;17.786;2022-07-29T11:18:36;118336.50;;;-144.97;26.92
42415;BME280;28058;46.344;17.786;2022-07-29T11:21:05;118336.50;;;-144.97;27.08
42415;BME280;28058;46.344;17.786;2022-07-29T11:24:12;118336.50;;;-144.97;27.09
42415;BME280;28058;46.344;17.786;2022-07-29T11:27:10;118336.50;;;-144.97;26.63
42415;BME280;28058;46.344;17.786;2022-07-29T11:29:58;118336.50;;;-144.97;28.21
42415;BME280;28058;46.344;17.786;2022-07-29T11:32:35;118336.50;;;-144.97;26.24
42415;BME280;28058;46.344;17.786;2022-07-29T11:37:44;118336.50;;;-144.97;26.22
42415;BME280;28058;46.344;17.786;2022-07-29T11:40:20;118336.50;;;-144.97;26.18
42415;BME280;28058;46.344;17.786;2022-07-29T11:42:48;118336.50;;;-144.97;25.86
42415;BME280;28058;46.344;17.786;2022-07-29T11:45:21;118336.50;;;-144.97;26.06
42415;BME280;28058;46.344;17.786;2022-07-29T11:48:14;118336.50;;;-144.97;26.22
42415;BME280;28058;46.344;17.786;2022-07-29T11:51:01;118336.50;;;-144.97;26.77
42415;BME280;28058;46.344;17.786;2022-07-29T11:53:35;118336.50;;;-144.97;27.63
42415;BME280;28058;46.344;17.786;2022-07-29T11:56:02;118336.50;;;-144.97;26.51
42415;BME280;28058;46.344;17.786;2022-07-29T11:58:30;118336.50;;;-144.97;26.70
42415;BME280;28058;46.344;17.786;2022-07-29T12:00:57;118336.50;;;-144.97;26.85
42415;BME280;28058;46.344;17.786;2022-07-29T12:03:30;118336.50;;;-144.97;26.51
42415;BME280;28058;46.344;17.786;2022-07-29T12:06:02;118336.50;;;-144.97;27.73
42415;BME280;28058;46.344;17.786;2022-07-29T12:08:28;118336.50;;;-144.97;25.98
42415;BME280;28058;46.344;17.786;2022-07-29T12:10:55;118336.50;;;-144.97;27.14
42415;BME280;28058;46.344;17.786;2022-07-29T12:13:22;118336.50;;;-144.97;26.83
42415;BME280;28058;46.344;17.786;2022-07-29T12:16:03;118336.50;;;-144.97;27.10
42415;BME280;28058;46.344;17.786;2022-07-29T12:18:30;118336.50;;;-144.97;28.00
42415;BME280;28058;46.344;17.786;2022-07-29T12:21:01;118336.50;;;-144.97;27.72
42415;BME280;28058;46.344;17.786;2022-07-29T12:23:30;118336.50;;;-144.97;28.16
42415;BME280;28058;46.344;17.786;2022-07-29T12:26:00;118336.50;;;-144.97;27.30
42415;BME280;28058;46.344;17.786;2022-07-29T12:28:29;118336.50;;;-144.97;27.33
42415;BME280;28058;46.344;17.786;2022-07-29T12:30:57;118336.50;;;-144.97;27.57
42415;BME280;28058;46.344;17.786;2022-07-29T12:33:25;118336.50;;;-144.97;27.30
42415;BME280;28058;46.344;17.786;2022-07-29T12:35:56;118336.50;;;-144.97;26.91
42415;BME280;28058;46.344;17.786;2022-07-29T12:38:32;118336.50;;;-144.97;26.84
42415;BME280;28058;46.344;17.786;2022-07-29T12:41:01;118336.50;;;-144.97;27.43
42415;BME280;28058;46.344;17.786;2022-07-29T12:43:29;118336.50;;;-144.97;27.07
42415;BME280;28058;46.344;17.786;2022-07-29T12:45:56;118336.50;;;-144.97;27.27
42415;BME280;28058;46.344;17.786;2022-07-29T12:48:33;118336.50;;;-144.97;27.19
42415;BME280;28058;46.344;17.786;2022-07-29T12:51:01;118336.50;;;-144.97;27.33
42415;BME280;28058;46.344;17.786;2022-07-29T12:53:29;118336.50;;;-144.97;27.79
42415;BME280;28058;46.344;17.786;2022-07-29T12:55:56;118336.50;;;-144.97;27.50
42415;BME280;28058;46.344;17.786;2022-07-29T12:58:32;118336.50;;;-144.97;26.85
42415;BME280;28058;46.344;17.786;2022-07-29T13:03:26;118336.50;;;-144.97;27.39
42415;BME280;28058;46.344;17.786;2022-07-29T13:05:52;118336.50;;;-144.97;27.37
42415;BME280;28058;46.344;17.786;2022-07-29T13:08:19;118336.50;;;-144.97;26.73
42415;BME280;28058;46.344;17.786;2022-07-29T13:10:48;118336.50;;;-144.97;27.04
42415;BME280;28058;46.344;17.786;2022-07-29T13:13:14;118336.50;;;-144.97;27.73
42415;BME280;28058;46.344;17.786;2022-07-29T13:15:42;118336.50;;;-144.97;28.04
42415;BME280;28058;46.344;17.786;2022-07-29T13:18:34;118336.50;;;-144.97;27.51